Time;durP1;ratioP1;P1;durP2;ratioP2;P2;SDS_P1;SDS_P2;PMS_P1;PMS_P2;Temp;Humidity;BMP_temperature;BMP_pressure;BME280_temperature;BME280_humidity;BME280_pressure;Samples;Min_cycle;Max_cycle;Signal;HPM_P1;HPM_P2
2023/08/14 00:02:10;;;;;;;7.43;6.83;;;23.60;69.70;;;;;;20850;6681;303724;-71
2023/08/14 00:04:46;;;;;;;6.37;5.93;;;23.60;69.00;;;;;;20966;6692;116844;-71
2023/08/14 00:07:22;;;;;;;6.20;5.70;;;23.30;71.40;;;;;;21055;6677;117002;-71
2023/08/14 00:09:58;;;;;;;6.73;6.10;;;23.20;71.30;;;;;;21074;6677;117105;-71
2023/08/14 00:12:33;;;;;;;6.77;6.37;;;23.00;72.70;;;;;;20866;6678;304363;-71
2023/08/14 00:15:09;;;;;;;6.50;6.00;;;23.30;71.90;;;;;;20969;6678;119897;-71
2023/08/14 00:17:45;;;;;;;7.00;6.60;;;23.30;72.10;;;;;;20813;6692;300894;-71
2023/08/14 00:20:20;;;;;;;6.20;5.70;;;23.50;70.40;;;;;;20973;6711;119362;-71
2023/08/14 00:22:56;;;;;;;6.70;6.10;;;23.40;70.90;;;;;;21077;6686;147370;-71
2023/08/14 00:25:31;;;;;;;6.77;6.23;;;23.20;71.90;;;;;;20687;6701;281470;-71
2023/08/14 00:28:07;;;;;;;6.70;6.20;;;23.40;70.90;;;;;;20851;6686;303951;-71
2023/08/14 00:30:43;;;;;;;6.40;5.90;;;23.70;69.30;;;;;;21003;6711;116742;-71
2023/08/14 00:33:18;;;;;;;5.77;5.27;;;23.70;69.90;;;;;;21018;6685;116956;-71
2023/08/14 00:35:54;;;;;;;6.33;4.60;;;23.40;70.90;;;;;;20863;6699;117254;-71
2023/08/14 00:38:30;;;;;;;6.53;4.03;;;23.10;71.90;;;;;;21061;6681;118779;-71
2023/08/14 00:41:06;;;;;;;5.68;5.00;;;23.00;73.00;;;;;;20820;6681;307975;-71
2023/08/14 00:43:42;;;;;;;5.80;5.13;;;23.20;71.50;;;;;;20990;6704;116640;-71
2023/08/14 00:46:17;;;;;;;5.20;4.70;;;23.20;71.60;;;;;;20824;6703;119570;-71
2023/08/14 00:48:53;;;;;;;8.40;4.50;;;23.10;72.50;;;;;;21016;6689;119094;-70
2023/08/14 00:51:28;;;;;;;4.83;3.63;;;22.90;73.50;;;;;;20916;6726;117563;-71
2023/08/14 00:54:04;;;;;;;6.60;4.00;;;22.80;74.10;;;;;;20741;6711;278431;-71
2023/08/14 00:56:39;;;;;;;4.22;3.87;;;23.10;71.60;;;;;;20817;6689;304968;-71
2023/08/14 00:59:15;;;;;;;5.25;4.70;;;23.50;70.10;;;;;;20775;6689;333176;-71
2023/08/14 01:01:51;;;;;;;4.33;3.97;;;23.80;68.50;;;;;;21035;6689;117276;-72
2023/08/14 01:04:26;;;;;;;6.07;3.97;;;23.70;69.20;;;;;;20974;6689;123028;-71
2023/08/14 01:07:02;;;;;;;5.80;5.30;;;23.50;70.50;;;;;;20815;6689;303912;-71
2023/08/14 01:09:37;;;;;;;6.15;5.55;;;23.60;69.50;;;;;;20816;6689;338982;-71
2023/08/14 01:12:38;;;;;;;5.47;5.07;;;23.90;68.50;;;;;;21037;6689;116510;-72
2023/08/14 01:15:28;;;;;;;4.67;4.03;;;23.80;69.10;;;;;;20884;6689;119869;-72
2023/08/14 01:18:04;;;;;;;5.03;4.55;;;23.40;70.20;;;;;;20696;6760;318816;-72
2023/08/14 01:20:40;;;;;;;6.33;5.73;;;23.80;67.80;;;;;;20783;6696;304842;-72
2023/08/14 01:23:22;;;;;;;8.77;4.43;;;23.80;67.30;;;;;;20916;6719;123384;-72
2023/08/14 01:25:58;;;;;;;8.43;5.30;;;23.30;69.30;;;;;;20811;6706;118297;-72
2023/08/14 01:28:34;;;;;;;8.25;7.45;;;23.20;69.20;;;;;;20702;6720;334238;-72
2023/08/14 01:31:09;;;;;;;7.33;6.80;;;23.30;69.50;;;;;;20702;6720;307037;-71
2023/08/14 01:33:45;;;;;;;7.10;6.47;;;23.50;69.00;;;;;;20990;6705;118867;-71
2023/08/14 01:36:35;;;;;;;6.77;6.10;;;23.10;71.40;;;;;;20705;6791;116803;-71
2023/08/14 01:39:10;;;;;;;6.53;6.13;;;23.10;71.40;;;;;;20373;6795;118642;-71
2023/08/14 01:42:05;;;;;;;6.97;6.30;;;22.90;73.10;;;;;;20955;6711;117907;-72
2023/08/14 01:44:41;;;;;;;8.70;7.10;;;22.70;74.20;;;;;;20727;6701;345352;-72
2023/08/14 01:47:18;;;;;;;8.70;7.13;;;23.00;72.80;;;;;;20815;6686;307203;-71
2023/08/14 01:49:53;;;;;;;6.87;6.20;;;23.30;70.50;;;;;;21038;6686;120905;-72
2023/08/14 01:52:30;;;;;;;11.20;6.07;;;23.20;70.60;;;;;;21035;6686;119504;-71
2023/08/14 01:55:05;;;;;;;6.10;5.50;;;22.90;71.80;;;;;;20864;6686;117923;-71
2023/08/14 01:57:41;;;;;;;6.87;5.97;;;22.40;73.80;;;;;;20986;6700;117777;-72
2023/08/14 02:00:17;;;;;;;13.03;7.40;;;22.40;73.80;;;;;;20740;6711;305969;-72
2023/08/14 02:02:52;;;;;;;13.17;6.23;;;22.60;73.80;;;;;;20975;6700;117205;-73
2023/08/14 02:05:28;;;;;;;25.00;7.07;;;22.40;75.20;;;;;;20888;6700;118679;-72
2023/08/14 02:08:04;;;;;;;6.63;6.13;;;22.30;75.10;;;;;;20963;6711;123269;-72
2023/08/14 02:10:40;;;;;;;7.57;6.97;;;22.20;76.30;;;;;;20960;6711;117180;-72
2023/08/14 02:13:15;;;;;;;7.10;6.40;;;22.10;77.30;;;;;;20968;6700;118761;-72
2023/08/14 02:15:51;;;;;;;6.17;5.57;;;22.00;78.30;;;;;;20865;6701;124204;-72
2023/08/14 02:18:26;;;;;;;5.43;4.93;;;21.90;79.50;;;;;;21089;6671;117263;-71
2023/08/14 02:21:03;;;;;;;5.40;4.90;;;22.10;77.20;;;;;;20854;6671;308083;-72
2023/08/14 02:23:38;;;;;;;4.23;3.93;;;22.10;77.10;;;;;;21093;6671;116660;-71
2023/08/14 02:26:14;;;;;;;7.93;4.00;;;22.20;76.50;;;;;;20868;6671;117120;-71
2023/08/14 02:28:51;;;;;;;4.60;4.30;;;22.00;77.10;;;;;;20863;6671;297190;-73
2023/08/14 02:31:25;;;;;;;6.20;3.55;;;22.30;74.80;;;;;;20804;6691;333695;-71
2023/08/14 02:34:01;;;;;;;3.67;3.40;;;22.60;71.10;;;;;;20825;6696;304974;-71
2023/08/14 02:36:37;;;;;;;3.33;3.03;;;23.10;67.50;;;;;;20840;6696;276071;-71
2023/08/14 02:39:13;;;;;;;3.62;3.10;;;23.10;67.50;;;;;;20819;6696;274113;-71
2023/08/14 02:41:48;;;;;;;3.53;3.17;;;23.30;65.90;;;;;;20839;6696;303302;-71
2023/08/14 02:44:24;;;;;;;2.87;2.60;;;23.40;65.30;;;;;;21003;6696;116772;-71
2023/08/14 02:46:59;;;;;;;3.77;2.60;;;23.00;66.20;;;;;;21032;6696;116769;-72
2023/08/14 02:49:35;;;;;;;2.90;2.70;;;22.70;67.90;;;;;;20829;6696;294211;-71
2023/08/14 02:52:10;;;;;;;3.40;2.70;;;22.70;66.30;;;;;;21052;6696;120598;-72
2023/08/14 02:54:46;;;;;;;3.03;2.80;;;22.60;67.10;;;;;;20754;6696;282927;-71
2023/08/14 02:57:22;;;;;;;3.28;3.08;;;22.70;67.20;;;;;;20820;6696;331994;-71
2023/08/14 02:59:57;;;;;;;3.00;2.80;;;22.90;66.30;;;;;;20833;6696;274460;-71
2023/08/14 03:02:34;;;;;;;3.83;2.83;;;23.10;65.10;;;;;;20837;6696;299387;-71
2023/08/14 03:05:08;;;;;;;3.10;2.90;;;23.30;64.20;;;;;;20708;6696;344077;-71
2023/08/14 03:07:45;;;;;;;2.93;2.73;;;23.50;63.90;;;;;;20784;6715;321261;-71
2023/08/14 03:10:22;;;;;;;3.17;2.90;;;23.50;63.90;;;;;;20809;6690;304875;-71
2023/08/14 03:12:57;;;;;;;3.13;2.50;;;23.60;64.00;;;;;;20967;6690;117868;-72
2023/08/14 03:15:33;;;;;;;2.60;2.40;;;23.30;65.10;;;;;;20855;6691;117236;-71
2023/08/14 03:18:09;;;;;;;3.17;2.97;;;22.90;66.40;;;;;;20790;6697;305148;-71
2023/08/14 03:20:44;;;;;;;3.22;3.03;;;22.90;66.40;;;;;;20788;6697;318048;-71
2023/08/14 03:23:20;;;;;;;3.20;2.90;;;23.10;65.80;;;;;;20987;6697;116515;-71
2023/08/14 03:25:56;;;;;;;3.57;2.60;;;22.60;68.30;;;;;;20850;6697;119191;-71
2023/08/14 03:28:32;;;;;;;3.23;3.03;;;22.50;68.00;;;;;;20766;6702;309179;-71
2023/08/14 03:31:07;;;;;;;5.93;2.60;;;22.70;67.60;;;;;;21016;6702;116615;-71
2023/08/14 03:33:43;;;;;;;3.03;2.90;;;22.60;68.00;;;;;;20702;6720;307353;-71
2023/08/14 03:36:19;;;;;;;3.27;3.07;;;22.70;67.00;;;;;;20741;6705;117328;-71
2023/08/14 03:38:54;;;;;;;3.43;3.13;;;22.50;67.20;;;;;;20770;6691;275228;-71
2023/08/14 03:41:30;;;;;;;4.43;3.45;;;22.60;66.40;;;;;;20812;6689;304203;-71
2023/08/14 03:44:05;;;;;;;3.00;2.80;;;22.80;65.90;;;;;;20947;6704;119425;-71
2023/08/14 03:46:41;;;;;;;4.07;2.90;;;22.60;66.60;;;;;;21030;6689;117095;-71
2023/08/14 03:49:17;;;;;;;4.80;3.20;;;22.20;68.00;;;;;;20758;6704;304333;-71
2023/08/14 03:51:52;;;;;;;3.40;3.10;;;22.30;67.10;;;;;;20983;6704;116834;-72
2023/08/14 03:54:29;;;;;;;5.13;2.63;;;22.20;67.70;;;;;;20901;6719;119974;-72
2023/08/14 03:57:05;;;;;;;3.30;3.00;;;21.90;68.90;;;;;;20813;6752;119756;-72
2023/08/14 03:59:41;;;;;;;3.60;3.40;;;21.80;69.30;;;;;;20663;6736;305813;-72
2023/08/14 04:02:17;;;;;;;4.00;3.60;;;21.80;69.30;;;;;;20616;6752;306439;-72
2023/08/14 04:04:53;;;;;;;3.95;3.55;;;22.40;67.30;;;;;;20551;6734;308256;-72
2023/08/14 04:07:29;;;;;;;3.10;2.90;;;22.40;67.30;;;;;;20887;6735;123097;-72
2023/08/14 04:10:05;;;;;;;3.77;3.57;;;22.30;68.00;;;;;;20614;6752;306489;-72
2023/08/14 04:12:44;;;;;;;4.30;3.90;;;22.10;68.70;;;;;;20854;6743;121134;-71
2023/08/14 04:15:17;;;;;;;3.77;3.57;;;22.10;68.70;;;;;;20701;6758;120627;-72
2023/08/14 04:17:55;;;;;;;3.70;3.40;;;21.80;69.90;;;;;;20810;6758;117245;-71
2023/08/14 04:20:28;;;;;;;3.57;3.27;;;21.60;71.10;;;;;;20859;6743;117326;-71
2023/08/14 04:23:05;;;;;;;7.70;4.63;;;21.50;72.40;;;;;;20856;6742;123419;-72
2023/08/14 04:25:39;;;;;;;5.27;4.77;;;21.30;73.30;;;;;;20776;6733;117648;-71
2023/08/14 04:28:15;;;;;;;5.77;5.27;;;21.20;74.20;;;;;;20891;6738;116723;-71
2023/08/14 04:30:50;;;;;;;6.67;6.10;;;21.20;74.90;;;;;;20828;6749;119634;-73
2023/08/14 04:33:26;;;;;;;7.10;6.60;;;21.20;75.30;;;;;;20697;6729;300621;-71
2023/08/14 04:36:01;;;;;;;6.85;6.20;;;21.50;73.10;;;;;;20461;6740;338423;-72
2023/08/14 04:38:37;;;;;;;5.93;5.43;;;21.90;70.90;;;;;;20885;6734;116989;-71
2023/08/14 04:41:13;;;;;;;7.30;5.63;;;21.90;71.00;;;;;;20623;6729;311088;-71
2023/08/14 04:43:48;;;;;;;5.90;5.60;;;22.10;70.00;;;;;;20683;6731;337297;-72
2023/08/14 04:46:33;;;;;;;5.80;5.30;;;22.40;68.70;;;;;;20402;6820;313842;-71
2023/08/14 04:49:09;;;;;;;4.60;4.30;;;22.60;68.10;;;;;;20633;6749;419298;-71
2023/08/14 04:51:44;;;;;;;3.97;3.60;;;22.80;67.70;;;;;;20799;6759;118201;-72
2023/08/14 04:54:20;;;;;;;5.93;3.93;;;22.60;68.70;;;;;;20810;6749;119201;-71
2023/08/14 04:56:56;;;;;;;3.70;3.50;;;22.00;71.40;;;;;;20844;6741;122873;-71
2023/08/14 04:59:32;;;;;;;4.40;3.90;;;22.00;71.30;;;;;;20601;6756;307939;-71
2023/08/14 05:02:07;;;;;;;5.20;4.80;;;22.20;70.30;;;;;;20883;6734;117427;-71
2023/08/14 05:04:43;;;;;;;5.10;4.80;;;22.20;70.80;;;;;;20595;6741;310080;-71
2023/08/14 05:07:19;;;;;;;4.72;4.32;;;22.40;70.30;;;;;;20702;6718;334459;-71
2023/08/14 05:09:54;;;;;;;4.30;3.90;;;22.70;68.90;;;;;;20913;6726;116970;-71
2023/08/14 05:12:30;;;;;;;4.73;4.33;;;22.60;69.10;;;;;;20895;6726;116995;-71
2023/08/14 05:15:06;;;;;;;4.00;3.70;;;22.40;70.40;;;;;;20811;6720;118294;-72
2023/08/14 05:17:41;;;;;;;4.72;4.15;;;22.20;71.60;;;;;;20757;6705;276111;-71
2023/08/14 05:20:17;;;;;;;6.32;5.05;;;22.40;70.70;;;;;;20716;6719;322236;-71
2023/08/14 05:22:52;;;;;;;6.00;4.73;;;22.80;69.10;;;;;;20732;6710;282006;-72
2023/08/14 05:25:28;;;;;;;5.70;5.20;;;23.10;68.20;;;;;;20601;6719;339883;-72
2023/08/14 05:28:04;;;;;;;5.27;4.73;;;23.30;67.40;;;;;;20885;6734;117322;-71
2023/08/14 05:30:43;;;;;;;5.07;4.60;;;23.20;68.20;;;;;;20874;6737;116887;-71
2023/08/14 05:33:18;;;;;;;4.90;4.57;;;22.90;69.70;;;;;;20729;6710;311593;-71
2023/08/14 05:35:54;;;;;;;4.73;4.37;;;23.10;69.60;;;;;;20763;6726;120434;-71
2023/08/14 05:38:29;;;;;;;4.80;4.50;;;23.10;69.90;;;;;;20915;6720;116928;-71
2023/08/14 05:41:05;;;;;;;5.83;5.43;;;23.00;70.60;;;;;;20680;6723;310161;-71
2023/08/14 05:43:41;;;;;;;64.82;7.78;;;23.60;67.20;;;;;;20710;6724;334852;-71
2023/08/14 05:46:18;;;;;;;22.95;6.62;;;23.60;67.20;;;;;;20466;6724;337327;-71
2023/08/14 05:48:52;;;;;;;10.50;5.50;;;23.90;65.80;;;;;;20893;6727;127227;-72
2023/08/14 05:51:28;;;;;;;6.47;5.97;;;23.70;67.10;;;;;;20682;6730;308809;-71
2023/08/14 05:54:03;;;;;;;6.03;5.62;;;23.80;66.90;;;;;;20608;6751;307236;-71
2023/08/14 05:56:39;;;;;;;6.10;5.70;;;24.00;66.20;;;;;;20614;6752;298160;-71
2023/08/14 05:59:15;;;;;;;7.30;4.70;;;24.10;64.90;;;;;;20888;6726;119545;-71
2023/08/14 06:01:50;;;;;;;6.20;5.60;;;23.90;65.80;;;;;;20687;6729;310999;-71
2023/08/14 06:04:26;;;;;;;6.68;6.18;;;24.10;65.10;;;;;;20622;6741;281780;-71
2023/08/14 06:07:02;;;;;;;5.10;4.77;;;24.10;65.10;;;;;;20917;6718;118894;-71
2023/08/14 06:09:38;;;;;;;4.83;4.53;;;23.90;65.90;;;;;;20837;6749;117059;-71
2023/08/14 06:12:14;;;;;;;6.00;5.50;;;23.80;66.80;;;;;;20698;6734;306096;-70
2023/08/14 06:14:50;;;;;;;5.33;4.93;;;23.80;66.80;;;;;;20644;6726;307867;-74
2023/08/14 06:17:25;;;;;;;6.97;4.63;;;24.20;66.10;;;;;;20944;6720;117145;-70
2023/08/14 06:20:01;;;;;;;5.53;5.10;;;24.20;66.90;;;;;;20729;6719;280605;-70
2023/08/14 06:22:41;;;;;;;5.43;5.00;;;24.70;66.00;;;;;;20696;6737;276748;-70
2023/08/14 06:25:16;;;;;;;4.70;4.40;;;24.70;66.00;;;;;;20801;6719;121393;-70
2023/08/14 06:27:52;;;;;;;5.07;4.67;;;24.70;66.60;;;;;;20620;6748;278734;-71
2023/08/14 06:30:27;;;;;;;3.90;3.70;;;24.80;65.50;;;;;;20914;6726;116989;-71
2023/08/14 06:33:03;;;;;;;3.60;3.40;;;24.80;66.30;;;;;;20893;6726;117426;-71
2023/08/14 06:35:58;;;;;;;5.00;3.60;;;24.60;66.90;;;;;;20772;6730;119971;-71
2023/08/14 06:38:34;;;;;;;3.93;3.70;;;24.50;67.60;;;;;;20743;6711;305517;-71
2023/08/14 06:41:10;;;;;;;3.43;3.23;;;24.90;65.30;;;;;;20873;6734;123237;-70
2023/08/14 06:43:46;;;;;;;5.90;3.47;;;24.90;65.30;;;;;;20889;6734;116904;-71
2023/08/14 06:46:21;;;;;;;6.10;3.20;;;24.80;66.40;;;;;;20808;6775;117229;-71
2023/08/14 06:48:57;;;;;;;3.33;2.97;;;24.80;67.40;;;;;;20905;6722;119575;-70
2023/08/14 06:51:33;;;;;;;3.50;3.30;;;24.80;68.20;;;;;;20727;6719;277172;-71
2023/08/14 06:54:08;;;;;;;3.57;3.10;;;25.30;65.60;;;;;;20924;6719;119450;-70
2023/08/14 06:56:44;;;;;;;5.80;3.37;;;25.60;66.20;;;;;;20984;6706;117419;-72
2023/08/14 06:59:19;;;;;;;3.23;3.03;;;25.70;66.80;;;;;;21000;6696;121543;-71
2023/08/14 07:01:55;;;;;;;3.50;3.30;;;25.80;67.20;;;;;;20786;6699;311747;-71
2023/08/14 07:04:31;;;;;;;3.67;3.30;;;26.70;59.50;;;;;;20709;6711;278669;-71
2023/08/14 07:07:07;;;;;;;3.50;3.13;;;26.70;59.20;;;;;;20714;6715;304361;-71
2023/08/14 07:09:42;;;;;;;2.93;2.73;;;27.20;57.10;;;;;;20934;6720;117296;-70
2023/08/14 07:12:18;;;;;;;3.20;3.00;;;27.20;58.50;;;;;;20698;6726;305287;-71
2023/08/14 07:14:53;;;;;;;3.23;3.00;;;27.30;57.80;;;;;;20678;6706;280982;-71
2023/08/14 07:17:29;;;;;;;3.50;3.20;;;27.70;58.10;;;;;;20735;6714;300920;-71
2023/08/14 07:20:05;;;;;;;3.40;3.20;;;28.10;57.80;;;;;;20792;6697;277228;-70
2023/08/14 07:22:41;;;;;;;3.43;3.13;;;28.50;56.20;;;;;;20667;6737;277638;-70
2023/08/14 07:25:17;;;;;;;3.17;2.97;;;28.50;56.20;;;;;;20610;6719;278462;-70
2023/08/14 07:27:53;;;;;;;3.40;3.00;;;28.60;55.20;;;;;;20721;6720;321551;-70
2023/08/14 07:30:28;;;;;;;2.93;2.80;;;28.70;56.00;;;;;;20939;6719;116984;-70
2023/08/14 07:33:07;;;;;;;3.63;2.40;;;28.50;57.20;;;;;;20924;6720;129193;-71
2023/08/14 07:35:39;;;;;;;7.40;3.30;;;28.20;58.60;;;;;;20803;6719;118114;-71
2023/08/14 07:38:15;;;;;;;3.20;2.90;;;28.10;59.60;;;;;;20705;6726;311040;-71
2023/08/14 07:40:51;;;;;;;3.00;2.80;;;28.80;57.50;;;;;;20677;6726;308788;-71
2023/08/14 07:43:27;;;;;;;5.57;2.80;;;28.80;57.50;;;;;;20888;6734;120154;-71
2023/08/14 07:46:02;;;;;;;2.70;2.50;;;28.90;58.20;;;;;;20772;6719;119978;-71
2023/08/14 07:48:38;;;;;;;2.93;2.60;;;28.90;58.90;;;;;;20879;6738;117843;-71
2023/08/14 07:51:13;;;;;;;3.37;3.07;;;28.80;59.60;;;;;;20725;6711;288322;-71
2023/08/14 07:53:49;;;;;;;2.97;2.77;;;29.10;57.80;;;;;;20892;6734;116989;-71
2023/08/14 07:56:25;;;;;;;4.00;2.83;;;29.10;58.50;;;;;;20663;6805;119510;-71
2023/08/14 07:59:02;;;;;;;3.40;3.20;;;29.10;59.30;;;;;;20891;6729;117010;-71
2023/08/14 08:01:37;;;;;;;4.17;3.20;;;29.10;59.90;;;;;;20936;6719;120970;-71
2023/08/14 08:04:13;;;;;;;4.73;3.10;;;29.40;57.30;;;;;;20748;6706;276229;-71
2023/08/14 08:06:49;;;;;;;3.03;2.80;;;29.50;57.30;;;;;;21019;6695;116798;-71
2023/08/14 08:09:24;;;;;;;2.87;2.67;;;29.60;57.90;;;;;;21020;6695;116969;-71
2023/08/14 08:12:00;;;;;;;3.23;2.93;;;29.60;58.10;;;;;;21020;6695;117033;-71
2023/08/14 08:14:35;;;;;;;3.40;3.10;;;29.60;58.40;;;;;;20882;6722;116974;-71
2023/08/14 08:17:11;;;;;;;3.50;3.20;;;29.60;59.30;;;;;;20708;6719;305513;-71
2023/08/14 08:19:47;;;;;;;3.30;3.00;;;30.40;55.40;;;;;;20641;6744;307175;-71
2023/08/14 08:22:23;;;;;;;2.83;2.70;;;30.40;55.40;;;;;;20958;6719;116828;-71
2023/08/14 08:24:58;;;;;;;3.10;2.90;;;30.60;56.00;;;;;;20578;6734;282553;-71
2023/08/14 08:27:34;;;;;;;3.63;2.60;;;30.80;54.00;;;;;;20945;6720;117409;-71
2023/08/14 08:30:10;;;;;;;3.70;3.50;;;30.90;55.10;;;;;;20730;6722;276397;-71
2023/08/14 08:32:45;;;;;;;3.00;2.90;;;31.00;52.60;;;;;;20711;6726;306109;-71
2023/08/14 08:35:21;;;;;;;3.47;2.60;;;31.40;51.90;;;;;;20824;6719;117381;-71
2023/08/14 08:37:56;;;;;;;3.03;2.80;;;31.40;53.80;;;;;;20841;6752;117101;-71
2023/08/14 08:40:32;;;;;;;2.83;2.63;;;31.30;54.20;;;;;;20906;6735;117460;-70
2023/08/14 08:43:08;;;;;;;3.30;3.10;;;31.10;54.60;;;;;;20925;6720;143333;-70
2023/08/14 08:45:43;;;;;;;3.03;2.90;;;31.10;55.60;;;;;;20724;6752;120485;-71
2023/08/14 08:48:19;;;;;;;3.27;3.07;;;31.10;55.80;;;;;;20945;6719;117378;-71
2023/08/14 08:50:55;;;;;;;3.00;2.80;;;31.10;56.10;;;;;;20887;6735;117004;-72
2023/08/14 08:53:31;;;;;;;2.93;2.73;;;31.10;56.00;;;;;;20939;6719;117169;-71
2023/08/14 08:56:09;;;;;;;3.30;3.10;;;31.20;56.00;;;;;;20519;6721;313597;-71
2023/08/14 08:58:42;;;;;;;3.17;2.97;;;31.60;52.40;;;;;;20939;6720;116958;-71
2023/08/14 09:01:17;;;;;;;3.40;3.10;;;31.80;53.20;;;;;;20658;6734;305980;-71
2023/08/14 09:03:55;;;;;;;3.20;2.90;;;32.50;51.00;;;;;;20725;6721;280596;-70
2023/08/14 09:06:30;;;;;;;3.30;3.00;;;32.50;51.00;;;;;;20724;6719;310007;-71
2023/08/14 09:09:06;;;;;;;3.30;3.10;;;32.90;49.10;;;;;;20780;6764;119074;-71
2023/08/14 09:11:42;;;;;;;2.90;2.70;;;33.10;47.30;;;;;;20625;6749;306943;-71
2023/08/14 09:14:18;;;;;;;3.40;3.10;;;33.00;47.20;;;;;;20619;6743;339079;-71
2023/08/14 09:16:58;;;;;;;3.20;3.00;;;33.30;48.90;;;;;;20901;6728;119312;-71
2023/08/14 09:19:34;;;;;;;3.93;3.00;;;33.30;48.90;;;;;;20708;6728;277430;-71
2023/08/14 09:22:09;;;;;;;3.40;3.20;;;33.40;49.10;;;;;;20684;6731;335575;-70
2023/08/14 09:24:45;;;;;;;3.30;3.10;;;33.70;47.90;;;;;;20645;6725;341274;-71
2023/08/14 09:27:21;;;;;;;3.00;2.80;;;33.90;45.10;;;;;;20926;6734;116871;-71
2023/08/14 09:29:56;;;;;;;3.17;2.97;;;33.70;47.00;;;;;;20941;6719;121001;-71
2023/08/14 09:32:32;;;;;;;3.20;3.00;;;33.50;48.50;;;;;;20999;6705;117768;-71
2023/08/14 09:35:07;;;;;;;3.57;3.17;;;33.30;49.00;;;;;;20589;6737;313280;-71
2023/08/14 09:37:44;;;;;;;3.37;3.17;;;33.50;47.70;;;;;;20981;6706;116974;-71
2023/08/14 09:40:23;;;;;;;4.57;3.23;;;33.40;48.30;;;;;;20952;6730;116813;-71
2023/08/14 09:42:56;;;;;;;3.33;3.13;;;33.30;48.20;;;;;;20891;6729;117653;-71
2023/08/14 09:45:34;;;;;;;3.40;3.10;;;33.50;46.90;;;;;;20651;6719;307073;-71
2023/08/14 09:48:08;;;;;;;3.67;3.37;;;33.40;46.90;;;;;;20940;6720;119308;-71
2023/08/14 09:50:50;;;;;;;4.50;3.27;;;33.60;48.30;;;;;;20669;6737;304387;-71
2023/08/14 09:53:26;;;;;;;3.80;3.40;;;34.10;44.20;;;;;;20710;6726;304974;-71
2023/08/14 09:56:02;;;;;;;3.50;3.23;;;34.10;44.10;;;;;;20770;6720;117291;-71
2023/08/14 09:58:39;;;;;;;3.37;3.17;;;34.10;45.60;;;;;;20965;6711;119509;-71
2023/08/14 10:01:14;;;;;;;4.87;3.10;;;33.90;47.90;;;;;;20922;6720;116923;-71
2023/08/14 10:03:53;;;;;;;3.30;3.10;;;33.80;48.50;;;;;;20652;6741;278389;-71
2023/08/14 10:06:28;;;;;;;3.37;3.10;;;34.00;46.10;;;;;;20688;6730;335069;-71
2023/08/14 10:09:04;;;;;;;13.27;12.33;;;34.40;45.50;;;;;;20876;6734;119714;-71
2023/08/14 10:11:39;;;;;;;3.90;3.60;;;34.40;45.80;;;;;;20868;6741;117398;-71
2023/08/14 10:14:15;;;;;;;6.87;3.40;;;34.20;46.50;;;;;;20893;6726;118532;-71
2023/08/14 10:16:51;;;;;;;3.53;3.33;;;34.00;47.40;;;;;;20864;6734;143550;-72
2023/08/14 10:19:26;;;;;;;3.40;3.20;;;34.00;47.70;;;;;;20936;6725;117096;-71
2023/08/14 10:22:03;;;;;;;3.90;2.93;;;33.90;47.90;;;;;;20969;6711;117102;-71
2023/08/14 10:24:37;;;;;;;3.55;3.25;;;34.00;48.80;;;;;;20649;6726;337736;-71
2023/08/14 10:27:14;;;;;;;2.90;2.80;;;34.40;44.40;;;;;;20943;6726;119286;-71
2023/08/14 10:29:50;;;;;;;3.20;3.00;;;34.50;45.70;;;;;;20920;6726;119330;-71
2023/08/14 10:32:25;;;;;;;3.63;3.30;;;34.50;46.90;;;;;;20921;6726;116802;-71
2023/08/14 10:35:01;;;;;;;3.40;3.20;;;34.50;46.80;;;;;;20813;6729;118272;-71
2023/08/14 10:37:43;;;;;;;5.70;3.33;;;34.30;46.60;;;;;;20947;6714;117324;-71
2023/08/14 10:40:18;;;;;;;3.57;3.27;;;34.20;46.80;;;;;;20784;6714;275650;-71
2023/08/14 10:42:57;;;;;;;5.70;3.40;;;34.50;45.10;;;;;;20942;6711;116882;-71
2023/08/14 10:45:33;;;;;;;3.80;3.50;;;34.50;46.20;;;;;;20862;6711;117726;-71
2023/08/14 10:48:08;;;;;;;4.37;2.97;;;34.50;47.20;;;;;;20961;6711;116932;-71
2023/08/14 10:50:44;;;;;;;3.20;3.00;;;34.40;47.20;;;;;;20796;6696;300004;-71
2023/08/14 10:53:19;;;;;;;3.47;3.20;;;34.50;44.40;;;;;;20993;6696;117163;-71
2023/08/14 10:55:55;;;;;;;3.33;3.13;;;34.50;46.10;;;;;;20813;6711;117229;-71
2023/08/14 10:58:31;;;;;;;3.35;3.15;;;34.30;47.10;;;;;;20730;6715;339021;-71
2023/08/14 11:01:07;;;;;;;3.67;3.35;;;34.90;43.60;;;;;;20703;6720;305346;-71
2023/08/14 11:04:03;;;;;;;3.40;3.20;;;34.90;43.60;;;;;;20748;6711;299119;-71
2023/08/14 11:07:02;;;;;;;3.60;3.30;;;35.30;43.10;;;;;;20785;6699;276672;-71
2023/08/14 11:09:37;;;;;;;3.75;3.45;;;35.30;43.10;;;;;;20754;6711;304924;-72
2023/08/14 11:12:13;;;;;;;3.83;3.00;;;35.50;42.40;;;;;;20751;6711;334101;-72
2023/08/14 11:14:48;;;;;;;3.67;3.40;;;35.60;42.00;;;;;;20882;6768;120093;-72
2023/08/14 11:17:25;;;;;;;3.40;3.20;;;35.60;43.30;;;;;;20947;6711;119403;-72
2023/08/14 11:19:59;;;;;;;4.00;3.30;;;35.30;44.00;;;;;;20759;6711;304500;-71
2023/08/14 11:22:35;;;;;;;3.63;3.37;;;35.40;43.00;;;;;;20942;6719;116948;-72
2023/08/14 11:25:15;;;;;;;3.40;3.10;;;35.50;44.00;;;;;;20620;6719;311822;-71
2023/08/14 11:27:50;;;;;;;3.40;3.20;;;35.60;44.30;;;;;;20931;6719;116957;-72
2023/08/14 11:30:26;;;;;;;3.70;3.50;;;35.60;44.20;;;;;;20935;6720;116777;-71
2023/08/14 11:33:04;;;;;;;3.47;3.27;;;35.50;45.00;;;;;;20682;6726;307301;-72
2023/08/14 11:35:37;;;;;;;3.90;3.20;;;35.50;42.90;;;;;;20581;6726;308167;-72
2023/08/14 11:38:13;;;;;;;3.60;3.33;;;35.80;42.60;;;;;;20697;6726;306408;-72
2023/08/14 11:40:49;;;;;;;3.50;3.07;;;35.60;43.80;;;;;;20918;6741;116889;-72
2023/08/14 11:43:25;;;;;;;3.40;3.20;;;35.60;43.10;;;;;;20723;6719;335152;-72
2023/08/14 11:46:00;;;;;;;3.37;3.17;;;35.50;43.10;;;;;;20545;6726;288310;-72
2023/08/14 11:48:38;;;;;;;3.83;3.40;;;35.50;42.90;;;;;;20891;6734;122875;-71
2023/08/14 11:51:14;;;;;;;3.30;3.10;;;34.80;45.80;;;;;;20858;6734;117437;-71
2023/08/14 11:53:49;;;;;;;3.85;3.60;;;34.80;45.00;;;;;;20747;6711;334152;-71
2023/08/14 11:56:25;;;;;;;6.83;6.43;;;34.70;43.70;;;;;;20780;6767;117184;-72
2023/08/14 11:59:00;;;;;;;3.67;3.40;;;34.50;45.00;;;;;;20693;6726;277206;-71
2023/08/14 12:01:37;;;;;;;3.53;3.23;;;34.60;43.80;;;;;;20701;6726;276530;-72
2023/08/14 12:04:14;;;;;;;3.50;3.20;;;34.60;43.80;;;;;;20684;6726;343993;-72
2023/08/14 12:06:49;;;;;;;3.10;2.90;;;34.60;43.20;;;;;;20913;6726;116931;-72
2023/08/14 12:09:28;;;;;;;3.50;3.30;;;34.40;44.40;;;;;;20680;6734;282056;-71
2023/08/14 12:12:03;;;;;;;3.73;3.20;;;34.30;44.20;;;;;;20955;6715;116760;-72
2023/08/14 12:14:42;;;;;;;3.50;3.30;;;34.10;45.40;;;;;;20707;6706;280769;-72
2023/08/14 12:17:21;;;;;;;3.45;3.20;;;34.00;45.60;;;;;;20682;6729;305860;-71
2023/08/14 12:19:59;;;;;;;3.43;3.20;;;34.10;44.90;;;;;;20928;6719;119489;-72
2023/08/14 12:22:35;;;;;;;3.40;3.28;;;33.90;46.10;;;;;;20702;6726;335583;-72
2023/08/14 12:25:10;;;;;;;3.50;3.40;;;33.80;45.50;;;;;;20822;6719;117464;-72
2023/08/14 12:27:46;;;;;;;3.57;3.37;;;33.50;46.50;;;;;;20842;6749;119613;-72
2023/08/14 12:30:22;;;;;;;3.60;3.40;;;33.10;47.40;;;;;;20938;6720;119337;-72
2023/08/14 12:32:57;;;;;;;3.80;3.60;;;32.70;47.90;;;;;;20893;6729;119107;-72
2023/08/14 12:35:35;;;;;;;3.70;3.50;;;32.30;48.60;;;;;;20585;6791;307624;-71
2023/08/14 12:38:09;;;;;;;3.77;3.37;;;32.40;47.30;;;;;;20955;6726;117495;-70
2023/08/14 12:40:45;;;;;;;3.90;3.60;;;31.90;49.10;;;;;;20954;6726;116982;-70
2023/08/14 12:43:20;;;;;;;5.25;4.72;;;31.80;48.90;;;;;;20648;6739;341265;-71
2023/08/14 12:45:56;;;;;;;6.05;5.45;;;32.20;48.40;;;;;;20531;6734;338204;-71
2023/08/14 12:48:32;;;;;;;10.33;8.33;;;32.20;48.70;;;;;;20937;6719;117491;-71
2023/08/14 12:51:08;;;;;;;9.37;7.50;;;32.00;49.70;;;;;;20897;6726;117158;-70
2023/08/14 12:53:43;;;;;;;12.23;9.10;;;31.70;50.80;;;;;;20895;6734;117991;-70
2023/08/14 12:56:19;;;;;;;11.20;8.00;;;31.40;52.00;;;;;;20533;6726;279250;-70
2023/08/14 12:58:57;;;;;;;11.03;8.47;;;31.50;52.90;;;;;;20678;6726;300942;-72
2023/08/14 13:01:32;;;;;;;5.97;4.70;;;31.70;51.10;;;;;;20961;6726;117350;-71
2023/08/14 13:04:08;;;;;;;4.70;4.33;;;31.60;51.90;;;;;;20869;6734;117057;-70
2023/08/14 13:06:44;;;;;;;5.10;4.60;;;31.20;53.10;;;;;;20696;6726;307079;-70
2023/08/14 13:09:19;;;;;;;4.30;4.00;;;31.20;54.40;;;;;;20859;6734;117831;-70
2023/08/14 13:11:55;;;;;;;5.57;4.30;;;31.10;54.60;;;;;;20755;6710;276614;-70
2023/08/14 13:14:31;;;;;;;4.37;4.07;;;31.00;54.50;;;;;;20942;6705;116985;-70
2023/08/14 13:17:07;;;;;;;5.10;4.70;;;30.90;55.40;;;;;;20859;6737;117505;-70
2023/08/14 13:19:42;;;;;;;4.82;4.10;;;30.70;56.20;;;;;;20761;6711;305338;-70
2023/08/14 13:22:18;;;;;;;4.43;4.03;;;30.90;55.80;;;;;;20926;6719;116913;-70